createdAt,value
2022-10-12T00:02:06.960Z,91.50
2022-10-12T00:06:18.128Z,92.17
2022-10-12T00:10:20.119Z,91.45
2022-10-12T00:14:22.148Z,90.37
2022-10-12T00:18:24.202Z,90.98
2022-10-12T00:22:26.269Z,92.55
2022-10-12T00:26:29.555Z,94.57
2022-10-12T00:30:31.723Z,95.16
2022-10-12T00:34:33.771Z,94.04
2022-10-12T00:38:35.773Z,95.40
2022-10-12T00:42:37.769Z,95.76
2022-10-12T00:46:44.835Z,95.41
2022-10-12T00:50:46.963Z,94.13
2022-10-12T00:54:51.005Z,93.16
2022-10-12T00:58:54.883Z,93.17
2022-10-12T01:02:58.129Z,93.30
2022-10-12T01:07:00.875Z,92.98
2022-10-12T01:11:03.909Z,92.40
2022-10-12T01:15:06.716Z,92.27
2022-10-12T01:19:34.186Z,90.82
2022-10-12T01:23:55.278Z,91.25
2022-10-12T01:28:11.813Z,91.59
2022-10-12T01:32:21.768Z,93.60
2022-10-12T01:36:37.256Z,93.96
2022-10-12T01:40:50.985Z,94.73
2022-10-12T01:45:08.419Z,94.59
2022-10-12T01:49:10.904Z,93.16
2022-10-12T01:53:33.213Z,92.17
2022-10-12T01:58:04.689Z,92.87
2022-10-12T02:02:19.018Z,92.36
2022-10-12T02:06:24.269Z,92.74
2022-10-12T02:10:38.901Z,94.55
2022-10-12T02:14:46.785Z,93.02
2022-10-12T02:18:52.602Z,93.13
2022-10-12T02:22:55.011Z,94.47
2022-10-12T02:26:58.257Z,94.61
2022-10-12T02:31:09.272Z,94.09
2022-10-12T02:35:25.261Z,92.71
2022-10-12T02:39:32.463Z,93.43
2022-10-12T02:43:36.851Z,94.58
2022-10-12T02:47:40.591Z,96.81
2022-10-12T02:51:44.603Z,96.39
2022-10-12T02:55:56.047Z,96.59
2022-10-12T02:59:58.041Z,96.60
2022-10-12T03:04:00.031Z,95.79
2022-10-12T03:08:01.996Z,96.04
2022-10-12T03:12:04.071Z,96.41
2022-10-12T03:16:11.339Z,96.73
2022-10-12T03:20:13.625Z,95.78
2022-10-12T03:24:15.598Z,95.28
2022-10-12T03:28:17.718Z,94.43
2022-10-12T03:32:19.729Z,93.60
2022-10-12T03:36:21.739Z,94.93
2022-10-12T03:40:23.704Z,95.72
2022-10-12T03:44:25.783Z,95.14
2022-10-12T03:48:27.836Z,95.64
2022-10-12T03:52:29.847Z,96.25
2022-10-12T03:56:31.882Z,95.66
2022-10-12T04:00:33.941Z,96.92
2022-10-12T04:04:35.981Z,97.58
2022-10-12T04:08:40.152Z,97.97
2022-10-12T04:12:42.337Z,96.14
2022-10-12T04:16:44.297Z,95.42
2022-10-12T04:20:49.948Z,96.59
2022-10-12T04:24:52.031Z,96.69
2022-10-12T04:28:54.122Z,97.58
2022-10-12T04:32:56.444Z,96.48
2022-10-12T04:36:58.422Z,96.69
2022-10-12T04:41:00.415Z,97.06
2022-10-12T04:45:02.587Z,97.87
2022-10-12T04:49:04.669Z,97.78
2022-10-12T04:53:06.674Z,97.19
2022-10-12T04:57:08.769Z,95.74
2022-10-12T05:01:11.110Z,96.03
2022-10-12T05:05:13.184Z,96.97
2022-10-12T05:09:17.066Z,97.51
2022-10-12T05:13:19.451Z,96.85
2022-10-12T05:17:21.407Z,98.65
2022-10-12T05:21:23.416Z,98.06
2022-10-12T05:25:25.673Z,99.77
2022-10-12T05:29:27.658Z,100.00
2022-10-12T05:33:29.938Z,99.22
2022-10-12T05:37:33.281Z,98.83
2022-10-12T05:41:35.283Z,97.79
2022-10-12T05:45:37.333Z,96.85
2022-10-12T05:49:39.359Z,96.24
2022-10-12T05:53:41.480Z,96.63
2022-10-12T05:57:44.325Z,98.82
2022-10-12T06:01:49.782Z,99.19
2022-10-12T06:05:51.913Z,98.64
2022-10-12T06:09:54.219Z,98.17
2022-10-12T06:13:56.209Z,97.96
2022-10-12T06:17:58.289Z,97.25
2022-10-12T06:22:00.292Z,96.83
2022-10-12T06:26:02.470Z,96.91
2022-10-12T06:30:05.122Z,96.86
2022-10-12T06:34:07.163Z,95.37
2022-10-12T06:38:09.276Z,93.70
2022-10-12T06:42:11.868Z,93.61
2022-10-12T06:46:24.408Z,92.43
2022-10-12T06:50:26.792Z,91.64
2022-10-12T06:54:28.776Z,90.87
2022-10-12T06:58:30.768Z,91.07
2022-10-12T07:02:33.676Z,91.02
2022-10-12T07:06:35.704Z,91.05
2022-10-12T07:10:37.663Z,90.28
2022-10-12T07:14:39.821Z,91.64
2022-10-12T07:18:41.997Z,92.61
2022-10-12T07:22:44.558Z,93.36
2022-10-12T07:26:46.573Z,94.11
2022-10-12T07:30:48.748Z,94.13
2022-10-12T07:34:50.800Z,93.86
2022-10-12T07:38:52.964Z,94.45
2022-10-12T07:43:23.315Z,94.62
2022-10-12T07:47:17.750Z,94.36
2022-10-12T07:51:19.874Z,94.29
2022-10-12T07:55:21.901Z,94.40
2022-10-12T07:59:24.148Z,94.42
2022-10-12T08:03:26.197Z,94.61
2022-10-12T08:07:28.190Z,94.91
2022-10-12T08:11:30.320Z,95.97
2022-10-12T08:15:32.340Z,96.93
2022-10-12T08:19:36.372Z,97.76
2022-10-12T08:23:39.057Z,99.17
2022-10-12T08:27:41.535Z,99.64
2022-10-12T08:31:43.649Z,99.43
2022-10-12T08:35:47.760Z,99.08
2022-10-12T08:39:49.786Z,99.31
2022-10-12T08:44:04.163Z,99.17
2022-10-12T08:48:12.354Z,97.72
2022-10-12T08:52:41.480Z,96.29
2022-10-12T08:56:44.745Z,94.74
2022-10-12T09:00:50.663Z,93.16
2022-10-12T09:05:01.396Z,93.18
2022-10-12T09:09:15.684Z,92.80
2022-10-12T09:13:26.746Z,92.92
2022-10-12T09:17:47.465Z,92.26
2022-10-12T09:21:50.191Z,91.88
2022-10-12T09:25:56.889Z,91.43
2022-10-12T09:30:05.364Z,91.82
2022-10-12T09:34:09.541Z,92.88
2022-10-12T09:38:11.913Z,92.57
2022-10-12T09:42:13.918Z,91.97
2022-10-12T09:46:19.747Z,91.11
2022-10-12T09:50:40.850Z,90.11
2022-10-12T09:54:53.584Z,89.54
2022-10-12T09:59:05.545Z,88.62
2022-10-12T10:03:27.876Z,88.39
2022-10-12T10:07:35.804Z,88.45
2022-10-12T10:11:37.795Z,88.14
2022-10-12T10:15:40.250Z,88.08
2022-10-12T10:19:49.279Z,86.06
2022-10-12T10:23:54.423Z,86.14
2022-10-12T10:28:27.770Z,85.58
2022-10-12T10:32:31.542Z,84.19
2022-10-12T10:36:40.717Z,83.42
2022-10-12T10:40:42.782Z,83.25
2022-10-12T10:44:59.908Z,82.91
2022-10-12T10:49:08.942Z,81.65
2022-10-12T10:53:25.169Z,80.99
2022-10-12T10:57:27.781Z,79.42
2022-10-12T11:01:50.369Z,78.10
2022-10-12T11:06:08.791Z,77.07
2022-10-12T11:10:19.072Z,75.86
2022-10-12T11:14:28.662Z,74.67
2022-10-12T11:18:44.651Z,72.89
2022-10-12T11:23:04.946Z,72.03
2022-10-12T11:27:12.560Z,71.19
2022-10-12T11:31:20.081Z,71.02
2022-10-12T11:35:28.155Z,69.36
2022-10-12T11:39:34.578Z,68.60
2022-10-12T11:43:44.286Z,67.98
2022-10-12T11:47:49.167Z,66.52
2022-10-12T11:51:55.419Z,66.23
2022-10-12T11:56:09.906Z,64.72
2022-10-12T12:00:23.823Z,64.75
2022-10-12T12:04:47.472Z,63.16
2022-10-12T12:09:17.712Z,63.74
2022-10-12T12:13:23.240Z,64.04
2022-10-12T12:17:31.686Z,61.58
2022-10-12T12:22:12.541Z,61.66
2022-10-12T12:26:17.872Z,61.08
2022-10-12T12:30:19.847Z,60.78
2022-10-12T12:34:22.824Z,60.85
2022-10-12T12:38:30.878Z,61.02
2022-10-12T12:42:34.198Z,61.15
2022-10-12T12:46:54.315Z,61.54
2022-10-12T12:50:59.624Z,61.67
2022-10-12T12:55:18.512Z,62.05
2022-10-12T12:59:48.147Z,61.59
2022-10-12T13:04:03.306Z,61.96
2022-10-12T13:08:11.365Z,61.17
2022-10-12T13:12:39.862Z,60.41
2022-10-12T13:21:25.770Z,60.80
2022-10-12T13:25:43.751Z,61.27
2022-10-12T13:29:53.078Z,61.78
2022-10-12T13:34:11.672Z,61.92
2022-10-12T13:38:26.343Z,61.52
2022-10-12T13:42:33.634Z,61.95
2022-10-12T13:46:46.152Z,62.01
2022-10-12T13:51:00.224Z,62.17
2022-10-12T13:55:15.197Z,62.24
2022-10-12T13:59:21.218Z,62.39
2022-10-12T14:03:34.206Z,61.69
2022-10-12T14:07:38.608Z,61.45
2022-10-12T14:11:42.660Z,61.97
2022-10-12T14:15:44.926Z,61.71
2022-10-12T14:19:51.301Z,62.17
2022-10-12T14:23:54.583Z,62.57
2022-10-12T14:28:01.630Z,63.56
2022-10-12T14:32:26.423Z,63.78
2022-10-12T14:36:29.094Z,64.95
2022-10-12T14:40:41.927Z,65.04
2022-10-12T14:44:44.275Z,65.98
2022-10-12T14:48:46.274Z,66.07
2022-10-12T14:52:51.533Z,66.09
2022-10-12T14:56:53.555Z,66.54
2022-10-12T15:00:56.765Z,66.96
2022-10-12T15:04:59.666Z,67.89
2022-10-12T15:09:01.755Z,68.35
2022-10-12T15:13:03.938Z,68.83
2022-10-12T15:17:05.985Z,68.88
2022-10-12T15:21:08.751Z,69.37
2022-10-12T15:25:22.247Z,69.43
2022-10-12T15:29:24.553Z,69.85
2022-10-12T15:33:26.566Z,69.98
2022-10-12T15:37:31.267Z,70.46
2022-10-12T15:41:33.367Z,71.05
2022-10-12T15:45:38.433Z,71.55
2022-10-12T15:49:40.430Z,72.56
2022-10-12T15:53:44.734Z,73.11
2022-10-12T15:57:47.036Z,74.66
2022-10-12T16:01:49.080Z,75.85
2022-10-12T16:05:51.069Z,76.91
2022-10-12T16:09:53.170Z,78.13
2022-10-12T16:13:56.886Z,79.23
2022-10-12T16:18:00.739Z,79.88
2022-10-12T16:22:04.735Z,80.48
2022-10-12T16:26:11.755Z,81.20
2022-10-12T16:30:14.564Z,81.66
2022-10-12T16:34:16.616Z,82.84
2022-10-12T16:38:20.221Z,83.62
2022-10-12T16:42:22.895Z,84.16
2022-10-12T16:46:24.994Z,84.80
2022-10-12T16:50:27.132Z,85.66
2022-10-12T16:54:29.273Z,86.57
2022-10-12T16:58:31.418Z,86.75
2022-10-12T17:02:33.445Z,87.63
2022-10-12T17:06:35.509Z,87.94
2022-10-12T17:10:42.698Z,89.23
2022-10-12T17:14:44.723Z,90.15
2022-10-12T17:18:46.703Z,91.09
2022-10-12T17:22:48.690Z,92.23
2022-10-12T17:26:51.036Z,93.13
2022-10-12T17:30:53.052Z,93.66
2022-10-12T17:34:55.720Z,93.91
2022-10-12T17:38:58.786Z,93.96
2022-10-12T17:43:00.773Z,94.79
2022-10-12T17:47:02.904Z,95.90
2022-10-12T17:51:09.582Z,95.77
2022-10-12T17:55:29.631Z,94.82
2022-10-12T17:59:33.596Z,94.76
2022-10-12T18:03:35.808Z,95.96
2022-10-12T18:07:38.476Z,96.76
2022-10-12T18:11:40.626Z,96.48
2022-10-12T18:15:43.775Z,95.47
2022-10-12T18:19:47.071Z,96.32
2022-10-12T18:23:50.040Z,96.54
2022-10-12T18:27:52.411Z,96.97
2022-10-12T18:31:54.390Z,96.81
2022-10-12T18:36:04.824Z,98.21
2022-10-12T18:40:07.469Z,99.33
2022-10-12T18:44:10.759Z,99.07
2022-10-12T18:48:13.453Z,100.00
2022-10-12T18:52:15.740Z,100.00
2022-10-12T18:56:18.544Z,100.00
2022-10-12T19:00:20.674Z,100.00
2022-10-12T19:04:22.777Z,100.00
2022-10-12T19:08:24.772Z,100.00
2022-10-12T19:12:26.795Z,100.00
2022-10-12T19:16:29.879Z,100.00
2022-10-12T19:20:32.629Z,100.00
2022-10-12T19:24:34.807Z,100.00
2022-10-12T19:28:36.989Z,100.00
2022-10-12T19:32:39.047Z,100.00
2022-10-12T19:36:41.545Z,100.00
2022-10-12T19:40:43.704Z,100.00
2022-10-12T19:44:45.741Z,100.00
2022-10-12T19:48:50.524Z,100.00
2022-10-12T19:52:52.599Z,100.00
2022-10-12T19:56:54.596Z,100.00
2022-10-12T20:01:01.124Z,100.00
2022-10-12T20:05:03.340Z,100.00
2022-10-12T20:09:07.486Z,100.00
2022-10-12T20:13:09.496Z,100.00
2022-10-12T20:17:11.536Z,100.00
2022-10-12T20:21:16.355Z,100.00
2022-10-12T20:25:18.437Z,100.00
2022-10-12T20:29:20.489Z,100.00
2022-10-12T20:33:22.552Z,100.00
2022-10-12T20:37:24.705Z,100.00
2022-10-12T20:41:27.814Z,100.00
2022-10-12T20:45:29.871Z,100.00
2022-10-12T20:49:31.860Z,100.00
2022-10-12T20:53:34.315Z,100.00
2022-10-12T20:57:36.483Z,100.00
2022-10-12T21:01:38.513Z,100.00
2022-10-12T21:05:40.591Z,100.00
2022-10-12T21:09:42.781Z,100.00
2022-10-12T21:13:45.956Z,100.00
2022-10-12T21:17:47.975Z,100.00
2022-10-12T21:21:49.951Z,100.00
2022-10-12T21:25:52.734Z,100.00
2022-10-12T21:29:54.788Z,100.00
2022-10-12T21:33:56.788Z,100.00
2022-10-12T21:37:58.780Z,100.00
2022-10-12T21:42:00.819Z,100.00
2022-10-12T21:46:11.832Z,100.00
2022-10-12T21:50:13.892Z,100.00
2022-10-12T21:54:15.893Z,100.00
2022-10-12T21:58:17.986Z,100.00
2022-10-12T22:02:20.276Z,100.00
2022-10-12T22:06:24.416Z,100.00
2022-10-12T22:10:26.602Z,100.00
2022-10-12T22:14:28.657Z,100.00
2022-10-12T22:18:30.765Z,100.00
2022-10-12T22:22:33.109Z,100.00
2022-10-12T22:26:35.366Z,100.00
2022-10-12T22:30:40.681Z,100.00
2022-10-12T22:34:42.696Z,100.00
2022-10-12T22:38:44.943Z,100.00
2022-10-12T22:42:46.920Z,100.00
2022-10-12T22:46:48.986Z,100.00
2022-10-12T22:50:52.240Z,100.00
2022-10-12T22:54:54.299Z,100.00
2022-10-12T22:58:58.445Z,100.00
2022-10-12T23:03:00.461Z,100.00
2022-10-12T23:07:02.497Z,100.00
2022-10-12T23:11:10.496Z,100.00
2022-10-12T23:15:12.518Z,100.00
2022-10-12T23:19:16.332Z,100.00
2022-10-12T23:23:18.425Z,100.00
2022-10-12T23:27:20.419Z,100.00
2022-10-12T23:31:25.726Z,100.00
2022-10-12T23:35:27.835Z,100.00
2022-10-12T23:39:31.779Z,100.00
2022-10-12T23:43:34.718Z,100.00
2022-10-12T23:47:39.103Z,100.00
2022-10-12T23:51:41.839Z,100.00
2022-10-12T23:55:44.213Z,100.00
2022-10-12T23:59:46.197Z,100.00
